Asbury, West Virginia
Current Conditions -  °F | °C
As of 4:35 AM on Friday 24 Oct 2014 (Local Time) from KLWB Reporting Station
Clear Clear  
Wind Chill: 41°   Ceiling: Unl
Heat Index: 41°   Visibility: 10mi
Dew Point: 40°   Wind: 3mph
Humidity: 95%   Direction: 280°W
Pressure: 30.08"   Gusts: NA
Location:  37.82°N, 80.56°W
Report Text: KLWB 240835Z AUTO 28003KT 10SM CLR 05/04 A3008 RMK AO2 T00500043
Loading
Personal Weather Stations






























Interactive Weather Map
Tropical Storm Tracking
New forecast layout! Learn more

10-Day Weather Forecast

Advertisements
Track Severe Weather on mobile